Dege, China
Current Conditions -  °F | °C
As of 12:00 AM on Tuesday 23 Dec 2014 (Local Time) from ZUUU Reporting Station
Clear Clear  
Wind Chill: 43°   Ceiling: Unl
Heat Index: 43°   Visibility: 4mi
Dew Point: 28°   Wind: 0mph
Humidity: 57%   Direction: NA
Pressure: 30.21"   Gusts: NA
Location:  31.73°N, 98.57°E
Report Text: ZUUU 221600Z 00000MPS 6000 NSC 06/M02 Q1023 NOSIG
Loading
Personal Weather Stations






























Interactive Weather Map New forecast layout! Learn more

10-Day Weather Forecast

Advertisements
Track Severe Weather on mobile